Terminal Aerodrome Forecast
Issued by NWS

Home | Current Version | Previous Version | Text Only | Print | Product List | Glossary On
Versions: 1 2 3 4 5 6 7 8 9 10 11 12 13 14 15 16 17 18 19 20 21 22 23 24 25 26 27 28 29
000
FTUS45 KSLC 280520
TAFSGU
TAF
KSGU 280520Z 2806/2906 13008KT P6SM VCSH SCT100 BKN120
      TEMPO 2806/2808 17015G25KT -TSRA BKN080CB OVC100
     FM282000 22010KT P6SM VCSH SCT100 BKN120
     FM290300 08007KT P6SM VCSH SCT100 BKN140
      AMD LTD TO CLD VIS AND WIND=

USA.gov is the U.S. government's official web portal to all federal, state and local government web resources and services.